Time;durP1;ratioP1;P1;durP2;ratioP2;P2;SDS_P1;SDS_P2;PMS_P1;PMS_P2;Temp;Humidity;BMP_temperature;BMP_pressure;BME280_temperature;BME280_humidity;BME280_pressure;Samples;Min_cycle;Max_cycle;Signal;HPM_P1;HPM_P2
2022/10/24 00:02:09;;;;;;;5.67;3.73;;;13.50;99.90;;;;;;5071455;28;20584;-50
2022/10/24 00:04:37;;;;;;;6.53;3.77;;;13.50;99.90;;;;;;5071307;28;20440;-48
2022/10/24 00:07:05;;;;;;;7.70;3.67;;;13.50;99.90;;;;;;5071426;28;20518;-52
2022/10/24 00:09:34;;;;;;;9.07;3.60;;;13.30;99.90;;;;;;5071148;28;20460;-48
2022/10/24 00:12:01;;;;;;;9.07;3.70;;;13.50;99.90;;;;;;5071603;28;20521;-48
2022/10/24 00:14:29;;;;;;;7.43;4.40;;;13.70;99.90;;;;;;5071109;28;20448;-49
2022/10/24 00:16:55;;;;;;;9.17;5.30;;;13.90;99.90;;;;;;5071587;28;21011;-48
2022/10/24 00:19:23;;;;;;;9.20;4.23;;;14.10;99.90;;;;;;5071237;28;20460;-48
2022/10/24 00:21:50;;;;;;;9.77;3.67;;;13.90;99.90;;;;;;5071200;28;20852;-50
2022/10/24 00:24:18;;;;;;;7.57;4.60;;;13.70;99.90;;;;;;5070856;28;20964;-48
2022/10/24 00:26:46;;;;;;;7.90;3.40;;;13.60;99.90;;;;;;5071602;28;20546;-49
2022/10/24 00:29:13;;;;;;;7.17;4.00;;;13.60;99.90;;;;;;5070770;28;21016;-48
2022/10/24 00:31:40;;;;;;;12.67;4.00;;;13.50;99.90;;;;;;5071159;28;20442;-49
2022/10/24 00:34:08;;;;;;;6.70;3.40;;;13.50;99.90;;;;;;5070990;28;20502;-49
2022/10/24 00:36:35;;;;;;;9.37;3.97;;;13.40;99.90;;;;;;5071154;28;20547;-48
2022/10/24 00:39:02;;;;;;;6.00;3.60;;;13.60;99.90;;;;;;5070985;28;20455;-48
2022/10/24 00:41:32;;;;;;;8.77;3.73;;;13.70;99.90;;;;;;5070756;28;20475;-49
2022/10/24 00:44:19;;;;;;;9.17;4.40;;;13.80;99.90;;;;;;5070744;28;20452;-49
2022/10/24 00:46:49;;;;;;;7.33;3.80;;;13.80;99.90;;;;;;5071159;28;20525;-49
2022/10/24 00:49:19;;;;;;;11.70;3.83;;;13.60;99.90;;;;;;5070841;28;20467;-49
2022/10/24 00:51:50;;;;;;;7.00;4.03;;;13.80;99.90;;;;;;5071009;28;20531;-49
2022/10/24 00:54:17;;;;;;;7.37;4.07;;;14.00;99.90;;;;;;5070499;28;20436;-51
2022/10/24 00:56:54;;;;;;;12.13;4.10;;;13.80;99.90;;;;;;5073873;28;20448;-49
2022/10/24 00:59:23;;;;;;;7.73;4.50;;;13.80;99.90;;;;;;5074723;28;20463;-48
2022/10/24 01:01:50;;;;;;;10.47;4.03;;;13.10;99.90;;;;;;5075112;28;20488;-50
2022/10/24 01:04:17;;;;;;;10.23;3.40;;;13.00;99.90;;;;;;5074593;28;20550;-49
2022/10/24 01:06:53;;;;;;;9.03;4.10;;;13.10;99.90;;;;;;5074594;28;20951;-48
2022/10/24 01:09:36;;;;;;;8.10;5.33;;;13.10;99.90;;;;;;5074642;28;20838;-50
2022/10/24 01:12:14;;;;;;;6.67;4.10;;;13.40;99.90;;;;;;5074776;28;20439;-48
2022/10/24 01:14:50;;;;;;;10.53;4.67;;;13.50;99.90;;;;;;5074378;28;20436;-50
2022/10/24 01:17:22;;;;;;;8.40;5.00;;;13.10;99.90;;;;;;5074415;28;21018;-48
2022/10/24 01:20:23;;;;;;;11.17;4.97;;;13.00;99.90;;;;;;5074349;28;20848;-49
2022/10/24 01:23:04;;;;;;;8.77;4.33;;;13.20;99.90;;;;;;5074339;28;20434;-49
2022/10/24 01:25:38;;;;;;;6.67;3.47;;;13.40;99.90;;;;;;5074195;28;20440;-49
2022/10/24 01:28:09;;;;;;;6.40;3.90;;;13.50;99.90;;;;;;5074152;28;20542;-49
2022/10/24 01:30:43;;;;;;;8.53;4.80;;;13.70;99.90;;;;;;5073592;28;20538;-49
2022/10/24 01:33:16;;;;;;;8.97;5.97;;;13.50;99.90;;;;;;5073755;28;20448;-48
2022/10/24 01:35:48;;;;;;;9.43;4.70;;;13.50;99.90;;;;;;5074334;28;20455;-48
2022/10/24 01:38:19;;;;;;;9.63;3.90;;;13.60;99.90;;;;;;5074286;28;20444;-50
2022/10/24 01:40:52;;;;;;;5.63;3.40;;;13.60;99.90;;;;;;5074104;28;20479;-49
2022/10/24 01:43:24;;;;;;;10.70;4.60;;;13.70;99.90;;;;;;5073712;28;20879;-48
2022/10/24 01:45:57;;;;;;;7.20;4.30;;;13.70;99.90;;;;;;5074103;28;20437;-48
2022/10/24 01:48:26;;;;;;;6.47;3.97;;;13.70;99.90;;;;;;5074188;28;20453;-50
2022/10/24 01:50:55;;;;;;;14.37;3.80;;;13.60;99.90;;;;;;5075144;28;20469;-49
2022/10/24 01:53:25;;;;;;;9.57;4.40;;;13.00;99.90;;;;;;5073738;28;20443;-49
2022/10/24 01:55:53;;;;;;;9.97;4.17;;;12.70;99.90;;;;;;5073692;28;20967;-49
2022/10/24 01:58:20;;;;;;;9.27;4.40;;;12.70;99.90;;;;;;5073600;28;20444;-49
2022/10/24 02:00:50;;;;;;;9.03;4.00;;;13.00;99.90;;;;;;5073324;28;20483;-50
2022/10/24 02:03:26;;;;;;;6.10;4.50;;;13.20;99.90;;;;;;5073239;28;20450;-48
2022/10/24 02:05:59;;;;;;;7.00;4.27;;;13.30;99.90;;;;;;5073718;28;20534;-49
2022/10/24 02:08:30;;;;;;;5.93;4.13;;;13.40;99.90;;;;;;5073600;28;20913;-48
2022/10/24 02:11:02;;;;;;;7.87;3.60;;;13.00;99.90;;;;;;5073431;28;20469;-48
2022/10/24 02:13:35;;;;;;;12.73;4.53;;;12.70;99.90;;;;;;5073206;28;20528;-49
2022/10/24 02:16:03;;;;;;;6.63;4.00;;;12.80;99.90;;;;;;5073493;28;20539;-49
2022/10/24 02:18:33;;;;;;;8.43;4.43;;;13.10;99.90;;;;;;5073504;28;20445;-51
2022/10/24 02:21:08;;;;;;;7.73;4.37;;;13.30;99.90;;;;;;5073072;28;20475;-49
2022/10/24 02:23:42;;;;;;;7.87;4.70;;;13.30;99.90;;;;;;5073302;28;20462;-52
2022/10/24 02:26:14;;;;;;;12.67;4.77;;;12.80;99.90;;;;;;5073264;28;20630;-48
2022/10/24 02:28:45;;;;;;;13.00;4.53;;;12.80;99.90;;;;;;5073367;28;20441;-48
2022/10/24 02:31:16;;;;;;;8.83;4.23;;;13.10;99.90;;;;;;5072477;28;20463;-49
2022/10/24 02:33:46;;;;;;;8.60;3.80;;;13.30;99.90;;;;;;5073120;28;20506;-48
2022/10/24 02:36:18;;;;;;;11.90;4.83;;;13.40;99.90;;;;;;5073276;28;20442;-48
2022/10/24 02:38:48;;;;;;;7.50;4.60;;;13.50;99.90;;;;;;5072852;28;20447;-49
2022/10/24 02:41:21;;;;;;;13.63;4.80;;;13.40;99.90;;;;;;5072978;28;20563;-48
2022/10/24 02:43:51;;;;;;;7.33;3.80;;;13.40;99.90;;;;;;5072491;28;20444;-48
2022/10/24 02:46:19;;;;;;;9.00;4.03;;;13.40;99.90;;;;;;5073045;28;20444;-51
2022/10/24 02:48:53;;;;;;;8.83;4.30;;;13.50;99.90;;;;;;5072792;28;21033;-51
2022/10/24 02:51:22;;;;;;;9.50;4.40;;;13.60;99.90;;;;;;5072579;28;20459;-49
2022/10/24 02:53:50;;;;;;;3.70;3.27;;;13.50;99.90;;;;;;5072425;28;20436;-49
2022/10/24 02:56:17;;;;;;;9.33;4.30;;;13.60;99.90;;;;;;5072405;28;20451;-49
2022/10/24 02:58:44;;;;;;;6.40;3.93;;;13.30;99.90;;;;;;5072656;28;20892;-49
2022/10/24 03:01:11;;;;;;;5.57;3.43;;;13.30;99.90;;;;;;5072024;28;20845;-48
2022/10/24 03:03:38;;;;;;;7.97;3.77;;;13.30;99.90;;;;;;5072542;28;20527;-49
2022/10/24 03:06:06;;;;;;;8.20;4.97;;;13.40;99.90;;;;;;5072633;28;20444;-49
2022/10/24 03:08:33;;;;;;;9.47;4.67;;;13.10;99.90;;;;;;5072828;28;20436;-49
2022/10/24 03:11:00;;;;;;;12.20;4.80;;;12.60;99.90;;;;;;5072249;28;20471;-49
2022/10/24 03:13:27;;;;;;;9.27;5.53;;;12.60;99.90;;;;;;5072228;28;20493;-49
2022/10/24 03:15:54;;;;;;;6.60;3.80;;;12.80;99.90;;;;;;5072052;28;20454;-50
2022/10/24 03:18:21;;;;;;;10.63;4.27;;;13.00;99.90;;;;;;5071782;28;20902;-49
2022/10/24 03:20:48;;;;;;;8.77;4.07;;;13.10;99.90;;;;;;5071915;28;21066;-49
2022/10/24 03:23:18;;;;;;;8.37;4.40;;;13.20;99.90;;;;;;5071830;28;20484;-50
2022/10/24 03:25:45;;;;;;;8.93;4.27;;;13.30;99.90;;;;;;5072170;28;20463;-49
2022/10/24 03:28:11;;;;;;;9.83;4.30;;;13.40;99.90;;;;;;5071849;28;20445;-48
2022/10/24 03:30:38;;;;;;;7.40;5.23;;;13.40;99.90;;;;;;5071401;28;20462;-49
2022/10/24 03:33:05;;;;;;;9.23;5.40;;;12.90;99.90;;;;;;5071715;28;20469;-52
2022/10/24 03:35:32;;;;;;;9.37;4.20;;;12.70;99.90;;;;;;5071748;28;20443;-49
2022/10/24 03:37:59;;;;;;;8.33;3.90;;;13.00;99.90;;;;;;5072212;28;20551;-49
2022/10/24 03:40:27;;;;;;;7.93;4.70;;;12.90;99.90;;;;;;5071811;28;20471;-49
2022/10/24 03:42:54;;;;;;;10.37;5.30;;;12.40;99.90;;;;;;5071506;28;20481;-49
2022/10/24 03:45:21;;;;;;;12.47;4.60;;;12.30;99.90;;;;;;5071971;28;20457;-49
2022/10/24 03:47:48;;;;;;;10.23;5.13;;;12.30;99.90;;;;;;5071476;28;21014;-49
2022/10/24 03:50:14;;;;;;;8.90;4.47;;;12.60;99.90;;;;;;5071313;28;20843;-49
2022/10/24 03:52:41;;;;;;;10.20;4.60;;;12.80;99.90;;;;;;5071752;28;20443;-49
2022/10/24 03:55:09;;;;;;;9.57;4.90;;;13.00;99.90;;;;;;5071474;28;20536;-48
2022/10/24 03:57:37;;;;;;;8.13;4.90;;;13.10;99.90;;;;;;5071757;28;20444;-49
2022/10/24 04:00:06;;;;;;;10.53;4.67;;;13.20;99.90;;;;;;5071550;28;20464;-49
2022/10/24 04:02:33;;;;;;;10.70;4.90;;;12.90;99.90;;;;;;5071400;28;20481;-49
2022/10/24 04:05:01;;;;;;;11.00;4.83;;;12.60;99.90;;;;;;5071123;28;20528;-49
2022/10/24 04:07:28;;;;;;;8.50;4.80;;;12.50;99.90;;;;;;5071459;28;20471;-49
2022/10/24 04:09:56;;;;;;;8.13;4.23;;;12.80;99.90;;;;;;5071279;28;21030;-48
2022/10/24 04:12:23;;;;;;;12.80;5.20;;;13.00;99.90;;;;;;5071563;28;20533;-49
2022/10/24 04:14:51;;;;;;;12.80;4.50;;;13.10;99.90;;;;;;5071142;28;20455;-49
2022/10/24 04:17:18;;;;;;;5.10;3.70;;;13.10;99.90;;;;;;5071401;28;20447;-49
2022/10/24 04:19:45;;;;;;;10.90;4.70;;;13.20;99.90;;;;;;5071406;28;20503;-49
2022/10/24 04:22:12;;;;;;;8.83;5.10;;;13.20;99.90;;;;;;5071143;28;20480;-49
2022/10/24 04:24:39;;;;;;;8.70;4.40;;;13.00;99.90;;;;;;5070942;28;20436;-49
2022/10/24 04:27:06;;;;;;;9.80;4.30;;;12.90;99.90;;;;;;5071184;28;20451;-49
2022/10/24 04:29:33;;;;;;;6.37;4.73;;;12.80;99.90;;;;;;5070278;28;20460;-50
2022/10/24 04:32:01;;;;;;;14.50;12.00;;;12.80;99.90;;;;;;5074319;28;20436;-49
2022/10/24 04:34:28;;;;;;;12.87;6.50;;;13.00;99.90;;;;;;5075077;28;20906;-49
2022/10/24 04:36:55;;;;;;;11.10;6.40;;;13.10;99.90;;;;;;5075538;28;20875;-50
2022/10/24 04:39:22;;;;;;;9.10;6.57;;;13.20;99.90;;;;;;5074819;28;21005;-49
2022/10/24 04:41:49;;;;;;;11.60;7.20;;;13.30;99.90;;;;;;5075154;28;20566;-49
2022/10/24 04:44:15;;;;;;;13.93;6.60;;;13.30;99.90;;;;;;5075295;28;20447;-50
2022/10/24 04:46:42;;;;;;;13.70;9.43;;;13.10;99.90;;;;;;5075320;28;20526;-49
2022/10/24 04:49:10;;;;;;;10.90;8.27;;;13.30;99.90;;;;;;5075042;28;20968;-49
2022/10/24 04:51:37;;;;;;;11.40;6.27;;;13.30;99.90;;;;;;5075292;28;20466;-48
2022/10/24 04:54:06;;;;;;;8.23;5.60;;;13.40;99.90;;;;;;5074493;28;20543;-51
2022/10/24 04:56:33;;;;;;;12.50;7.30;;;13.40;99.90;;;;;;5075158;28;20448;-49
2022/10/24 04:59:00;;;;;;;11.10;6.37;;;13.30;99.90;;;;;;5075047;28;20529;-49
2022/10/24 05:01:27;;;;;;;7.30;5.00;;;12.70;99.90;;;;;;5074232;28;20439;-50
2022/10/24 05:03:54;;;;;;;8.03;6.10;;;12.60;99.90;;;;;;5074500;28;20531;-48
2022/10/24 05:06:22;;;;;;;8.80;4.73;;;12.80;99.90;;;;;;5074694;28;20530;-49
2022/10/24 05:08:49;;;;;;;13.60;5.73;;;13.00;99.90;;;;;;5074716;28;20436;-48
2022/10/24 05:11:16;;;;;;;8.97;5.07;;;13.10;99.90;;;;;;5074882;28;20468;-49
2022/10/24 05:13:42;;;;;;;8.60;5.80;;;13.20;99.90;;;;;;5074168;28;20435;-49
2022/10/24 05:16:09;;;;;;;13.40;6.70;;;12.60;99.90;;;;;;5074887;28;20447;-49
2022/10/24 05:18:36;;;;;;;9.70;5.67;;;12.60;99.90;;;;;;5074678;28;20468;-50
2022/10/24 05:21:03;;;;;;;11.30;7.23;;;12.70;99.90;;;;;;5074492;28;20462;-49
2022/10/24 05:23:31;;;;;;;9.77;6.33;;;12.60;99.90;;;;;;5074222;28;20482;-52
2022/10/24 05:25:58;;;;;;;9.37;6.90;;;12.70;99.90;;;;;;5074388;28;20443;-51
2022/10/24 05:28:25;;;;;;;12.23;7.60;;;12.80;99.90;;;;;;5074370;28;20531;-49
2022/10/24 05:30:52;;;;;;;15.10;7.27;;;12.90;99.90;;;;;;5074155;28;20550;-49
2022/10/24 05:33:19;;;;;;;10.63;6.10;;;12.70;99.90;;;;;;5073855;28;20518;-49
2022/10/24 05:35:46;;;;;;;14.17;6.70;;;12.60;99.90;;;;;;5074164;28;20811;-49
2022/10/24 05:38:12;;;;;;;12.07;7.20;;;12.80;99.90;;;;;;5074089;28;20444;-49
2022/10/24 05:40:41;;;;;;;12.03;7.60;;;13.00;99.90;;;;;;5074129;28;20470;-50
2022/10/24 05:43:08;;;;;;;11.63;7.43;;;12.90;99.90;;;;;;5072802;28;20471;-49
2022/10/24 05:45:35;;;;;;;10.50;6.90;;;12.80;99.90;;;;;;5074118;28;20464;-50
2022/10/24 05:48:02;;;;;;;14.73;6.50;;;12.80;99.90;;;;;;5073838;28;20908;-50
2022/10/24 05:50:29;;;;;;;14.70;6.47;;;12.80;99.90;;;;;;5073675;28;20561;-49
2022/10/24 05:52:56;;;;;;;15.07;7.80;;;12.90;99.90;;;;;;5073552;28;20442;-49
2022/10/24 05:55:23;;;;;;;12.37;8.00;;;13.10;99.90;;;;;;5074067;28;20539;-48
2022/10/24 05:57:51;;;;;;;12.27;8.83;;;13.20;99.90;;;;;;5073741;28;20527;-51
2022/10/24 06:00:19;;;;;;;11.77;7.73;;;13.10;99.90;;;;;;5073596;28;20498;-51
2022/10/24 06:02:46;;;;;;;11.63;8.27;;;12.70;99.90;;;;;;5073761;28;20567;-50
2022/10/24 06:05:14;;;;;;;17.77;8.83;;;12.70;99.90;;;;;;5073470;28;20890;-50
2022/10/24 06:07:41;;;;;;;13.07;8.00;;;12.70;99.90;;;;;;5073426;28;20447;-49
2022/10/24 06:10:10;;;;;;;11.10;8.10;;;12.60;99.90;;;;;;5073774;28;20466;-49
2022/10/24 06:12:37;;;;;;;11.00;8.17;;;12.70;99.90;;;;;;5073532;28;20439;-49
2022/10/24 06:15:08;;;;;;;10.70;8.17;;;12.80;99.90;;;;;;5073185;28;20443;-49
2022/10/24 06:17:35;;;;;;;11.80;7.60;;;13.00;99.90;;;;;;5073201;28;20528;-48
2022/10/24 06:20:02;;;;;;;11.23;7.77;;;13.20;99.90;;;;;;5073613;28;20483;-49
2022/10/24 06:22:29;;;;;;;11.57;7.90;;;13.20;99.90;;;;;;5073143;28;20476;-49
2022/10/24 06:24:56;;;;;;;12.67;8.50;;;13.10;99.90;;;;;;5072959;28;20451;-51
2022/10/24 06:27:24;;;;;;;12.53;8.17;;;13.30;99.90;;;;;;5073295;28;20538;-49
2022/10/24 06:29:51;;;;;;;12.23;7.80;;;13.40;99.90;;;;;;5072771;28;20547;-49
2022/10/24 06:32:19;;;;;;;12.90;8.60;;;13.30;99.90;;;;;;5073082;28;20811;-49
2022/10/24 06:34:46;;;;;;;10.77;7.83;;;12.70;99.90;;;;;;5072851;28;20476;-49
2022/10/24 06:37:13;;;;;;;11.77;7.97;;;12.50;99.90;;;;;;5072953;28;20551;-50
2022/10/24 06:39:39;;;;;;;12.90;8.60;;;12.60;99.90;;;;;;5072866;28;20490;-49
2022/10/24 06:42:06;;;;;;;12.67;9.30;;;12.80;99.90;;;;;;5073165;28;20814;-49
2022/10/24 06:44:33;;;;;;;14.90;8.20;;;13.00;99.90;;;;;;5072897;28;20437;-51
2022/10/24 06:47:00;;;;;;;13.70;7.47;;;13.20;99.90;;;;;;5073016;28;20457;-49
2022/10/24 06:49:28;;;;;;;8.93;7.10;;;13.20;99.90;;;;;;5072841;28;20569;-49
2022/10/24 06:51:55;;;;;;;15.07;9.87;;;13.20;99.90;;;;;;5072918;28;20447;-49
2022/10/24 06:54:22;;;;;;;11.00;7.73;;;13.20;99.90;;;;;;5071835;28;20431;-50
2022/10/24 06:56:49;;;;;;;13.13;8.97;;;13.30;99.90;;;;;;5072363;28;20455;-49
2022/10/24 06:59:17;;;;;;;15.87;8.40;;;13.30;99.90;;;;;;5072501;28;20685;-50
2022/10/24 07:01:45;;;;;;;10.47;8.20;;;13.30;99.90;;;;;;5072692;28;20450;-50
2022/10/24 07:04:12;;;;;;;14.97;10.90;;;13.30;99.90;;;;;;5072070;28;21016;-50
2022/10/24 07:06:40;;;;;;;15.70;11.73;;;13.20;99.90;;;;;;5072742;28;20452;-50
2022/10/24 07:09:07;;;;;;;15.27;10.00;;;13.30;99.90;;;;;;5071869;28;20451;-50
2022/10/24 07:11:34;;;;;;;13.80;9.90;;;12.90;99.90;;;;;;5072332;28;20542;-51
2022/10/24 07:14:01;;;;;;;10.70;9.53;;;12.80;99.90;;;;;;5072212;28;20531;-52
2022/10/24 07:16:29;;;;;;;19.60;9.73;;;12.80;99.90;;;;;;5072128;28;20447;-50
2022/10/24 07:18:56;;;;;;;16.10;10.57;;;12.90;99.90;;;;;;5072156;28;20447;-49
2022/10/24 07:21:26;;;;;;;12.87;9.17;;;13.10;99.90;;;;;;5072224;28;20872;-50
2022/10/24 07:23:55;;;;;;;12.97;8.77;;;13.20;99.90;;;;;;5071786;28;20476;-49
2022/10/24 07:26:24;;;;;;;11.10;9.07;;;13.30;99.90;;;;;;5072136;28;20444;-50
2022/10/24 07:28:54;;;;;;;13.60;8.80;;;13.40;99.90;;;;;;5072417;28;20530;-50
2022/10/24 07:31:23;;;;;;;12.97;9.17;;;13.20;99.90;;;;;;5071686;28;20445;-50
2022/10/24 07:33:51;;;;;;;18.23;9.90;;;13.30;99.90;;;;;;5071675;28;20432;-51
2022/10/24 07:36:19;;;;;;;12.47;10.73;;;13.40;99.90;;;;;;5072177;28;20621;-49
2022/10/24 07:38:46;;;;;;;14.77;10.50;;;13.50;99.90;;;;;;5071868;28;20539;-49
2022/10/24 07:41:16;;;;;;;10.97;8.40;;;13.50;99.90;;;;;;5071849;28;20472;-49
2022/10/24 07:43:43;;;;;;;14.87;8.03;;;13.60;99.90;;;;;;5071312;28;20555;-49
2022/10/24 07:46:13;;;;;;;11.97;9.80;;;13.60;99.90;;;;;;5071731;28;20441;-49
2022/10/24 07:48:41;;;;;;;11.30;8.90;;;13.70;99.90;;;;;;5071705;28;20444;-50
2022/10/24 07:51:09;;;;;;;12.73;8.57;;;13.80;99.90;;;;;;5072859;28;20477;-51
2022/10/24 07:53:36;;;;;;;14.63;12.40;;;13.90;99.90;;;;;;5071372;28;20441;-50
2022/10/24 07:56:08;;;;;;;10.53;7.17;;;13.90;99.90;;;;;;5071585;28;20547;-49
2022/10/24 07:58:36;;;;;;;9.97;8.20;;;13.90;99.90;;;;;;5071462;28;20466;-50
2022/10/24 08:01:04;;;;;;;10.57;8.00;;;13.90;99.90;;;;;;5071207;28;20547;-51
2022/10/24 08:03:31;;;;;;;11.37;8.67;;;13.90;99.90;;;;;;5071152;28;21092;-50
2022/10/24 08:05:58;;;;;;;13.23;8.03;;;14.00;99.90;;;;;;5071523;28;20528;-51
2022/10/24 08:08:25;;;;;;;11.70;7.70;;;13.90;99.90;;;;;;5071512;28;20531;-49
2022/10/24 08:10:52;;;;;;;14.10;7.93;;;14.00;99.90;;;;;;5071356;28;20556;-50
2022/10/24 08:13:19;;;;;;;12.83;8.13;;;14.00;99.90;;;;;;5070887;28;21002;-51
2022/10/24 08:15:47;;;;;;;15.13;8.80;;;14.00;99.90;;;;;;5071383;28;20527;-49
2022/10/24 08:18:14;;;;;;;10.10;7.50;;;13.90;99.90;;;;;;5071656;28;20526;-48
2022/10/24 08:20:41;;;;;;;9.47;6.63;;;13.70;99.90;;;;;;5071409;28;20467;-48
2022/10/24 08:23:08;;;;;;;12.20;6.73;;;13.60;99.90;;;;;;5070868;28;20578;-49
2022/10/24 08:25:35;;;;;;;11.00;7.93;;;13.60;99.90;;;;;;5071431;28;20440;-49
2022/10/24 08:28:02;;;;;;;12.17;8.47;;;13.80;99.90;;;;;;5071147;28;20527;-51
2022/10/24 08:30:28;;;;;;;13.53;8.63;;;13.90;99.90;;;;;;5070992;28;20921;-49
2022/10/24 08:32:57;;;;;;;13.00;9.23;;;14.00;99.90;;;;;;5071238;28;20531;-49
2022/10/24 08:35:24;;;;;;;18.07;11.80;;;14.10;99.90;;;;;;5070974;28;20453;-49
2022/10/24 08:37:51;;;;;;;14.07;10.47;;;14.10;99.90;;;;;;5071289;28;20441;-50
2022/10/24 08:40:19;;;;;;;11.53;7.60;;;14.10;99.90;;;;;;5071176;28;21090;-49
2022/10/24 08:42:47;;;;;;;10.47;7.93;;;14.20;99.90;;;;;;5071154;28;20447;-49
2022/10/24 08:45:22;;;;;;;11.67;7.97;;;14.20;99.90;;;;;;5071003;28;20448;-49
2022/10/24 08:47:56;;;;;;;13.60;6.23;;;14.20;99.90;;;;;;5070887;28;20894;-51
2022/10/24 08:50:28;;;;;;;11.57;6.70;;;14.20;99.90;;;;;;5070753;28;20468;-49
2022/10/24 08:52:59;;;;;;;11.17;5.90;;;14.20;99.90;;;;;;5070776;28;20459;-49
2022/10/24 08:55:31;;;;;;;14.23;8.30;;;14.00;99.90;;;;;;5071174;28;20447;-49
2022/10/24 08:58:00;;;;;;;9.27;6.93;;;13.90;99.90;;;;;;5071042;28;20447;-49
2022/10/24 09:00:30;;;;;;;13.93;8.10;;;13.90;99.90;;;;;;5070510;28;20553;-49
2022/10/24 09:03:02;;;;;;;11.97;8.40;;;13.80;99.90;;;;;;5070663;28;20448;-49
2022/10/24 09:05:35;;;;;;;12.67;7.20;;;13.90;99.90;;;;;;5070693;28;20531;-49
2022/10/24 09:08:10;;;;;;;9.73;6.73;;;14.10;99.90;;;;;;5071195;28;20447;-49
2022/10/24 09:10:43;;;;;;;10.67;7.43;;;14.30;99.90;;;;;;5070732;28;20460;-49
2022/10/24 09:13:14;;;;;;;13.80;8.80;;;14.40;99.90;;;;;;5070649;28;20547;-49
2022/10/24 09:15:43;;;;;;;15.53;8.83;;;14.30;99.90;;;;;;5070744;28;20444;-50
2022/10/24 09:18:18;;;;;;;10.10;7.27;;;14.10;99.90;;;;;;5073817;28;20447;-50
2022/10/24 09:20:48;;;;;;;18.97;8.37;;;14.20;99.90;;;;;;5074531;28;20892;-49
2022/10/24 09:23:16;;;;;;;11.60;6.60;;;14.10;99.90;;;;;;5074060;28;20468;-49
2022/10/24 09:25:47;;;;;;;15.93;9.33;;;14.20;99.90;;;;;;5074246;28;20945;-50
2022/10/24 09:28:15;;;;;;;14.30;8.40;;;14.40;99.90;;;;;;5074226;28;20535;-49
2022/10/24 09:30:42;;;;;;;13.50;7.70;;;14.50;99.90;;;;;;5073922;28;20889;-48
2022/10/24 09:33:22;;;;;;;10.00;6.93;;;14.50;99.90;;;;;;5074460;28;20449;-49
2022/10/24 09:35:51;;;;;;;11.80;7.47;;;14.50;99.90;;;;;;5074261;28;20436;-48
2022/10/24 09:38:29;;;;;;;9.03;7.17;;;14.60;99.90;;;;;;5074153;28;20911;-49
2022/10/24 09:40:59;;;;;;;14.10;7.40;;;14.20;99.90;;;;;;5074155;28;20542;-50
2022/10/24 09:43:33;;;;;;;10.73;5.47;;;14.30;99.90;;;;;;5073849;28;20559;-50
2022/10/24 09:46:03;;;;;;;8.60;6.80;;;14.50;99.90;;;;;;5073911;28;20802;-50
2022/10/24 09:48:37;;;;;;;9.67;7.60;;;14.60;99.90;;;;;;5074228;28;20539;-50
2022/10/24 09:51:07;;;;;;;12.53;6.57;;;14.60;99.90;;;;;;5073797;28;21035;-50
2022/10/24 09:53:38;;;;;;;15.60;7.03;;;14.60;99.90;;;;;;5073762;28;20533;-50
2022/10/24 09:56:09;;;;;;;10.40;6.30;;;14.70;99.90;;;;;;5073906;28;20445;-50
2022/10/24 09:58:37;;;;;;;7.60;6.03;;;14.70;99.90;;;;;;5073831;28;20925;-50
2022/10/24 10:01:07;;;;;;;8.10;6.20;;;14.80;99.90;;;;;;5073890;28;20515;-50
2022/10/24 10:03:35;;;;;;;10.50;7.17;;;14.80;99.90;;;;;;5073381;28;20480;-51
2022/10/24 10:06:14;;;;;;;10.13;7.07;;;14.80;99.90;;;;;;5073499;28;20533;-52
2022/10/24 10:08:50;;;;;;;15.63;6.90;;;14.70;99.90;;;;;;5073905;28;20487;-50
2022/10/24 10:11:25;;;;;;;9.03;5.40;;;14.60;99.90;;;;;;5073423;28;20590;-50
2022/10/24 10:13:54;;;;;;;12.10;6.93;;;14.60;99.90;;;;;;5073216;28;20436;-51
2022/10/24 10:16:24;;;;;;;13.00;7.30;;;14.70;99.90;;;;;;5073675;28;20447;-51
2022/10/24 10:19:00;;;;;;;10.67;7.47;;;14.70;99.90;;;;;;5073498;28;21102;-51
2022/10/24 10:21:27;;;;;;;13.13;7.10;;;14.70;99.90;;;;;;5073599;28;20443;-50
2022/10/24 10:23:56;;;;;;;10.93;6.17;;;14.80;99.90;;;;;;5072878;28;20563;-51
2022/10/24 10:26:27;;;;;;;12.67;7.57;;;14.90;99.90;;;;;;5073155;28;20445;-50
2022/10/24 10:29:00;;;;;;;8.20;6.23;;;15.00;99.90;;;;;;5072126;28;20814;-50
2022/10/24 10:31:34;;;;;;;9.53;7.20;;;15.00;99.90;;;;;;5073300;28;20824;-50
2022/10/24 10:34:17;;;;;;;7.30;6.00;;;14.90;99.90;;;;;;5072751;28;20436;-51
2022/10/24 10:37:02;;;;;;;9.83;5.80;;;14.80;99.90;;;;;;5072589;28;20439;-51
2022/10/24 10:39:49;;;;;;;9.33;5.80;;;14.90;99.90;;;;;;5071275;28;20456;-50
2022/10/24 10:42:22;;;;;;;7.87;5.00;;;15.00;99.90;;;;;;5069927;28;20447;-50
2022/10/24 10:45:03;;;;;;;13.40;7.13;;;15.00;99.90;;;;;;5072380;28;20472;-50
2022/10/24 10:47:36;;;;;;;14.17;7.30;;;15.10;99.90;;;;;;5071695;28;20539;-50
2022/10/24 10:50:21;;;;;;;8.77;6.13;;;15.10;99.90;;;;;;5072378;28;20481;-50
2022/10/24 10:52:49;;;;;;;10.60;6.17;;;15.10;99.90;;;;;;5073044;28;20523;-50
2022/10/24 10:55:29;;;;;;;8.00;6.20;;;15.20;99.90;;;;;;5071623;28;20847;-51
2022/10/24 10:58:04;;;;;;;10.47;6.17;;;15.20;99.90;;;;;;5071157;28;20535;-50
2022/10/24 11:00:46;;;;;;;7.97;6.30;;;15.30;99.90;;;;;;5071540;28;20464;-50
2022/10/24 11:03:23;;;;;;;10.73;6.37;;;15.30;99.90;;;;;;5072330;28;20446;-50
2022/10/24 11:05:55;;;;;;;11.93;7.40;;;15.10;99.90;;;;;;5072353;28;20528;-50
2022/10/24 11:08:41;;;;;;;11.03;8.73;;;15.00;99.90;;;;;;5072628;28;20440;-50
2022/10/24 11:11:14;;;;;;;17.13;7.97;;;15.10;99.90;;;;;;5072541;28;20504;-51
2022/10/24 11:13:47;;;;;;;10.87;6.10;;;15.20;99.90;;;;;;5072085;28;20531;-50
2022/10/24 11:16:20;;;;;;;9.70;6.30;;;15.30;99.90;;;;;;5072204;28;20814;-50
2022/10/24 11:18:51;;;;;;;11.23;7.13;;;15.30;99.90;;;;;;5072325;28;20531;-50
2022/10/24 11:21:21;;;;;;;12.70;6.60;;;15.30;99.90;;;;;;5072066;28;20479;-50
2022/10/24 11:23:52;;;;;;;10.60;7.17;;;15.30;99.90;;;;;;5072187;28;20476;-50
2022/10/24 11:26:26;;;;;;;10.63;6.80;;;15.30;99.90;;;;;;5072568;28;20881;-51
2022/10/24 11:28:58;;;;;;;12.47;6.77;;;15.30;99.90;;;;;;5072077;28;20878;-52
2022/10/24 11:31:30;;;;;;;12.50;6.70;;;15.30;99.90;;;;;;5071605;28;20451;-50
2022/10/24 11:34:00;;;;;;;10.20;6.87;;;15.40;99.90;;;;;;5071634;28;21020;-50
2022/10/24 11:36:34;;;;;;;12.07;6.37;;;15.40;99.90;;;;;;5072003;28;20534;-52
2022/10/24 11:39:06;;;;;;;13.20;6.97;;;15.40;99.90;;;;;;5071624;28;20480;-50
2022/10/24 11:41:52;;;;;;;14.50;6.80;;;15.40;99.90;;;;;;5071730;28;20445;-51
2022/10/24 11:44:45;;;;;;;10.50;6.97;;;15.40;99.90;;;;;;5071485;28;20934;-50
2022/10/24 11:47:38;;;;;;;13.63;8.50;;;15.40;99.90;;;;;;5068433;28;20469;-52
2022/10/24 11:50:11;;;;;;;13.63;8.17;;;15.30;99.90;;;;;;5071619;28;20470;-50
2022/10/24 11:52:41;;;;;;;16.20;8.60;;;15.30;99.90;;;;;;5071852;28;20441;-50
2022/10/24 11:55:15;;;;;;;13.37;7.03;;;15.40;99.90;;;;;;5071587;28;20988;-50
2022/10/24 11:57:47;;;;;;;12.87;7.50;;;15.40;99.90;;;;;;5071620;28;20479;-50
2022/10/24 12:00:20;;;;;;;11.87;7.50;;;15.40;99.90;;;;;;5071261;28;20829;-50
2022/10/24 12:03:22;;;;;;;11.77;7.00;;;15.40;99.90;;;;;;5071576;28;20455;-51
2022/10/24 12:06:10;;;;;;;11.97;6.93;;;15.30;99.90;;;;;;5071570;28;20847;-50
2022/10/24 12:09:04;;;;;;;17.00;10.83;;;15.30;99.90;;;;;;5071539;28;20955;-50
2022/10/24 12:11:59;;;;;;;12.90;7.50;;;15.20;99.90;;;;;;5071542;28;20806;-49
2022/10/24 12:14:49;;;;;;;11.87;7.50;;;15.00;99.90;;;;;;5071189;28;20528;-51
2022/10/24 12:17:32;;;;;;;10.47;6.90;;;15.10;99.90;;;;;;5071505;28;20819;-51
2022/10/24 12:20:01;;;;;;;13.03;7.30;;;15.00;99.90;;;;;;5071169;28;20457;-50
2022/10/24 12:22:34;;;;;;;8.40;6.23;;;15.10;99.90;;;;;;5071319;28;20444;-50
2022/10/24 12:25:07;;;;;;;8.57;6.50;;;15.10;99.90;;;;;;5071172;28;20482;-49
2022/10/24 12:27:37;;;;;;;9.73;7.40;;;15.20;99.90;;;;;;5071298;28;20490;-49
2022/10/24 12:30:17;;;;;;;15.83;8.53;;;15.20;99.90;;;;;;5070837;28;20468;-50
2022/10/24 12:32:46;;;;;;;10.93;7.60;;;15.20;99.90;;;;;;5070926;28;21024;-50
2022/10/24 12:35:55;;;;;;;10.40;6.90;;;15.20;99.90;;;;;;5071034;28;20529;-50
2022/10/24 12:39:08;;;;;;;11.30;8.60;;;15.20;99.90;;;;;;5071093;28;20951;-51
2022/10/24 12:41:44;;;;;;;17.80;8.27;;;15.30;99.90;;;;;;5070907;28;20921;-49
2022/10/24 12:44:35;;;;;;;13.80;7.30;;;15.10;99.90;;;;;;5071238;28;20487;-50
2022/10/24 12:47:29;;;;;;;12.40;5.70;;;15.00;99.90;;;;;;5071086;28;20440;-49
2022/10/24 12:49:58;;;;;;;11.40;6.50;;;15.00;99.90;;;;;;5070780;28;20564;-49
2022/10/24 12:52:50;;;;;;;10.60;6.27;;;15.00;99.90;;;;;;5073521;28;20524;-50
2022/10/24 12:55:47;;;;;;;11.97;6.80;;;15.00;99.90;;;;;;5074851;28;20436;-50
2022/10/24 12:58:23;;;;;;;8.77;6.27;;;15.00;99.90;;;;;;5074270;28;20444;-49
2022/10/24 13:00:54;;;;;;;12.20;5.90;;;15.10;99.90;;;;;;5075325;28;20498;-49